Terminal Aerodrome Forecast
Issued by NWS Cleveland, OH

Home | Current Version | Previous Version | Graphics & Text | Print | Product List | Glossary On
Versions: 1 2 3 4 5 6 7 8 9 10 11 12 13 14 15 16 17 18 19 20 21 22 23 24 25
000
FTUS41 KCLE 250854 AAB
TAFCLE
TAF AMD
KCLE 250854Z 2509/2612 20008KT P6SM SCT250
     FM251100 23006KT P6SM VCTS BKN045CB OVC120
      TEMPO 2512/2514 30014KT 5SM -TSRA BKN035CB
     FM251500 26010KT P6SM SCT040 BKN100
     FM252200 VRB06KT P6SM SKC=

USA.gov is the U.S. government's official web portal to all federal, state and local government web resources and services.